sensor_id;sensor_type;location;lat;lon;timestamp;P1;durP1;ratioP1;P2;durP2;ratioP2
45762;SDS011;37512;52.408;13.356;2023-06-24T00:01:07;21.20;;;14.10;;
45762;SDS011;37512;52.408;13.356;2023-06-24T00:05:09;23.98;;;14.13;;
45762;SDS011;37512;52.408;13.356;2023-06-24T00:09:11;18.80;;;14.75;;
45762;SDS011;37512;52.408;13.356;2023-06-24T00:13:13;21.85;;;15.75;;
45762;SDS011;37512;52.408;13.356;2023-06-24T00:17:15;24.02;;;16.63;;
45762;SDS011;37512;52.408;13.356;2023-06-24T00:21:20;24.23;;;17.25;;
45762;SDS011;37512;52.408;13.356;2023-06-24T00:25:23;28.25;;;19.05;;
45762;SDS011;37512;52.408;13.356;2023-06-24T00:29:25;25.50;;;18.33;;
45762;SDS011;37512;52.408;13.356;2023-06-24T00:33:26;28.77;;;18.88;;
45762;SDS011;37512;52.408;13.356;2023-06-24T00:37:28;30.48;;;20.17;;
45762;SDS011;37512;52.408;13.356;2023-06-24T00:41:30;29.70;;;20.45;;
45762;SDS011;37512;52.408;13.356;2023-06-24T00:45:35;28.48;;;20.92;;
45762;SDS011;37512;52.408;13.356;2023-06-24T00:49:37;29.50;;;21.02;;
45762;SDS011;37512;52.408;13.356;2023-06-24T00:53:38;32.05;;;22.35;;
45762;SDS011;37512;52.408;13.356;2023-06-24T00:57:44;32.25;;;22.23;;
45762;SDS011;37512;52.408;13.356;2023-06-24T01:01:46;34.47;;;23.02;;
45762;SDS011;37512;52.408;13.356;2023-06-24T01:05:48;31.75;;;21.73;;
45762;SDS011;37512;52.408;13.356;2023-06-24T01:09:50;30.15;;;22.80;;
45762;SDS011;37512;52.408;13.356;2023-06-24T01:13:51;36.13;;;22.15;;
45762;SDS011;37512;52.408;13.356;2023-06-24T01:17:55;34.65;;;23.73;;
45762;SDS011;37512;52.408;13.356;2023-06-24T01:35:28;28.30;;;21.70;;
45762;SDS011;37512;52.408;13.356;2023-06-24T01:39:33;26.27;;;20.15;;
45762;SDS011;37512;52.408;13.356;2023-06-24T01:43:43;27.02;;;19.75;;
45762;SDS011;37512;52.408;13.356;2023-06-24T01:47:46;30.42;;;20.02;;
45762;SDS011;37512;52.408;13.356;2023-06-24T01:51:50;32.58;;;19.45;;
45762;SDS011;37512;52.408;13.356;2023-06-24T01:55:52;31.23;;;21.48;;
45762;SDS011;37512;52.408;13.356;2023-06-24T01:59:55;28.33;;;20.33;;
45762;SDS011;37512;52.408;13.356;2023-06-24T02:04:00;30.83;;;21.48;;
45762;SDS011;37512;52.408;13.356;2023-06-24T02:08:03;29.00;;;20.85;;
45762;SDS011;37512;52.408;13.356;2023-06-24T02:12:06;33.78;;;19.67;;
45762;SDS011;37512;52.408;13.356;2023-06-24T02:16:10;27.00;;;20.00;;
45762;SDS011;37512;52.408;13.356;2023-06-24T02:20:13;28.60;;;19.58;;
45762;SDS011;37512;52.408;13.356;2023-06-24T02:24:16;28.50;;;20.38;;
45762;SDS011;37512;52.408;13.356;2023-06-24T02:28:18;25.40;;;19.08;;
45762;SDS011;37512;52.408;13.356;2023-06-24T02:32:19;24.10;;;18.95;;
45762;SDS011;37512;52.408;13.356;2023-06-24T02:36:21;25.85;;;18.65;;
45762;SDS011;37512;52.408;13.356;2023-06-24T02:40:22;24.90;;;17.08;;
45762;SDS011;37512;52.408;13.356;2023-06-24T02:44:24;22.45;;;17.10;;
45762;SDS011;37512;52.408;13.356;2023-06-24T02:48:26;19.88;;;14.98;;
45762;SDS011;37512;52.408;13.356;2023-06-24T02:52:30;19.55;;;14.60;;
45762;SDS011;37512;52.408;13.356;2023-06-24T02:56:31;20.63;;;13.15;;
45762;SDS011;37512;52.408;13.356;2023-06-24T03:00:36;20.90;;;13.20;;
45762;SDS011;37512;52.408;13.356;2023-06-24T03:04:38;15.52;;;13.10;;
45762;SDS011;37512;52.408;13.356;2023-06-24T03:08:41;19.15;;;13.32;;
45762;SDS011;37512;52.408;13.356;2023-06-24T03:12:43;18.25;;;11.57;;
45762;SDS011;37512;52.408;13.356;2023-06-24T03:16:44;19.02;;;12.75;;
45762;SDS011;37512;52.408;13.356;2023-06-24T03:20:46;22.15;;;12.43;;
45762;SDS011;37512;52.408;13.356;2023-06-24T03:24:48;20.73;;;13.50;;
45762;SDS011;37512;52.408;13.356;2023-06-24T03:28:50;21.85;;;12.13;;
45762;SDS011;37512;52.408;13.356;2023-06-24T03:32:51;18.42;;;11.52;;
45762;SDS011;37512;52.408;13.356;2023-06-24T03:36:53;17.15;;;12.02;;
45762;SDS011;37512;52.408;13.356;2023-06-24T03:40:55;16.13;;;12.65;;
45762;SDS011;37512;52.408;13.356;2023-06-24T03:44:57;13.63;;;11.15;;
45762;SDS011;37512;52.408;13.356;2023-06-24T03:48:59;17.63;;;12.70;;
45762;SDS011;37512;52.408;13.356;2023-06-24T03:53:03;17.77;;;12.10;;
45762;SDS011;37512;52.408;13.356;2023-06-24T03:57:09;18.05;;;12.38;;
45762;SDS011;37512;52.408;13.356;2023-06-24T04:01:10;15.27;;;11.23;;
45762;SDS011;37512;52.408;13.356;2023-06-24T04:05:12;19.88;;;12.75;;
45762;SDS011;37512;52.408;13.356;2023-06-24T04:09:14;15.02;;;12.20;;
45762;SDS011;37512;52.408;13.356;2023-06-24T04:13:15;18.48;;;12.68;;
45762;SDS011;37512;52.408;13.356;2023-06-24T04:17:17;15.73;;;12.32;;
45762;SDS011;37512;52.408;13.356;2023-06-24T04:21:19;16.45;;;11.85;;
45762;SDS011;37512;52.408;13.356;2023-06-24T04:25:20;17.63;;;12.27;;
45762;SDS011;37512;52.408;13.356;2023-06-24T04:29:22;15.57;;;11.75;;
45762;SDS011;37512;52.408;13.356;2023-06-24T04:33:23;20.20;;;12.73;;
45762;SDS011;37512;52.408;13.356;2023-06-24T04:37:25;23.42;;;12.88;;
45762;SDS011;37512;52.408;13.356;2023-06-24T04:41:27;21.50;;;13.23;;
45762;SDS011;37512;52.408;13.356;2023-06-24T04:45:28;18.60;;;13.35;;
45762;SDS011;37512;52.408;13.356;2023-06-24T04:49:30;20.13;;;12.85;;
45762;SDS011;37512;52.408;13.356;2023-06-24T04:53:31;19.92;;;12.48;;
45762;SDS011;37512;52.408;13.356;2023-06-24T04:57:33;16.40;;;12.23;;
45762;SDS011;37512;52.408;13.356;2023-06-24T05:01:35;17.02;;;12.77;;
45762;SDS011;37512;52.408;13.356;2023-06-24T05:05:37;22.08;;;12.25;;
45762;SDS011;37512;52.408;13.356;2023-06-24T05:09:39;17.08;;;12.05;;
45762;SDS011;37512;52.408;13.356;2023-06-24T05:13:40;17.95;;;12.50;;
45762;SDS011;37512;52.408;13.356;2023-06-24T05:17:42;16.75;;;12.25;;
45762;SDS011;37512;52.408;13.356;2023-06-24T05:21:44;20.65;;;12.45;;
45762;SDS011;37512;52.408;13.356;2023-06-24T05:25:45;17.80;;;12.43;;
45762;SDS011;37512;52.408;13.356;2023-06-24T05:29:47;17.45;;;11.48;;
45762;SDS011;37512;52.408;13.356;2023-06-24T05:33:48;18.08;;;12.35;;
45762;SDS011;37512;52.408;13.356;2023-06-24T05:37:50;16.25;;;11.85;;
45762;SDS011;37512;52.408;13.356;2023-06-24T05:41:51;16.98;;;11.70;;
45762;SDS011;37512;52.408;13.356;2023-06-24T05:45:53;17.67;;;11.50;;
45762;SDS011;37512;52.408;13.356;2023-06-24T05:49:55;15.90;;;10.40;;
45762;SDS011;37512;52.408;13.356;2023-06-24T05:53:56;16.17;;;10.68;;
45762;SDS011;37512;52.408;13.356;2023-06-24T05:57:58;14.18;;;10.30;;
45762;SDS011;37512;52.408;13.356;2023-06-24T06:02:00;13.95;;;11.20;;
45762;SDS011;37512;52.408;13.356;2023-06-24T06:06:02;14.10;;;10.10;;
45762;SDS011;37512;52.408;13.356;2023-06-24T06:10:05;13.60;;;9.65;;
45762;SDS011;37512;52.408;13.356;2023-06-24T06:14:07;17.17;;;11.48;;
45762;SDS011;37512;52.408;13.356;2023-06-24T06:18:09;14.20;;;9.48;;
45762;SDS011;37512;52.408;13.356;2023-06-24T06:22:10;12.57;;;9.18;;
45762;SDS011;37512;52.408;13.356;2023-06-24T06:26:12;13.80;;;9.57;;
45762;SDS011;37512;52.408;13.356;2023-06-24T06:30:14;13.57;;;9.77;;
45762;SDS011;37512;52.408;13.356;2023-06-24T06:34:15;12.15;;;9.30;;
45762;SDS011;37512;52.408;13.356;2023-06-24T06:38:17;10.73;;;8.73;;
45762;SDS011;37512;52.408;13.356;2023-06-24T06:42:18;14.23;;;8.45;;
45762;SDS011;37512;52.408;13.356;2023-06-24T06:46:20;13.15;;;7.55;;
45762;SDS011;37512;52.408;13.356;2023-06-24T06:50:21;12.27;;;7.40;;
45762;SDS011;37512;52.408;13.356;2023-06-24T06:54:23;10.73;;;7.40;;
45762;SDS011;37512;52.408;13.356;2023-06-24T06:58:25;15.55;;;7.68;;
45762;SDS011;37512;52.408;13.356;2023-06-24T07:02:26;9.93;;;7.60;;
45762;SDS011;37512;52.408;13.356;2023-06-24T07:06:28;11.25;;;7.55;;
45762;SDS011;37512;52.408;13.356;2023-06-24T07:10:30;11.90;;;7.43;;
45762;SDS011;37512;52.408;13.356;2023-06-24T07:14:31;12.88;;;6.38;;
45762;SDS011;37512;52.408;13.356;2023-06-24T07:18:33;9.63;;;5.95;;
45762;SDS011;37512;52.408;13.356;2023-06-24T07:22:35;11.77;;;5.70;;
45762;SDS011;37512;52.408;13.356;2023-06-24T07:26:36;7.85;;;5.85;;
45762;SDS011;37512;52.408;13.356;2023-06-24T07:30:38;12.52;;;6.20;;
45762;SDS011;37512;52.408;13.356;2023-06-24T07:34:39;9.65;;;5.63;;
45762;SDS011;37512;52.408;13.356;2023-06-24T07:38:41;5.88;;;4.85;;
45762;SDS011;37512;52.408;13.356;2023-06-24T07:42:43;7.65;;;5.53;;
45762;SDS011;37512;52.408;13.356;2023-06-24T07:46:45;6.40;;;5.13;;
45762;SDS011;37512;52.408;13.356;2023-06-24T07:50:46;9.90;;;5.65;;
45762;SDS011;37512;52.408;13.356;2023-06-24T07:54:48;8.32;;;5.28;;
45762;SDS011;37512;52.408;13.356;2023-06-24T07:58:49;6.50;;;5.50;;
45762;SDS011;37512;52.408;13.356;2023-06-24T08:02:51;8.00;;;5.22;;
45762;SDS011;37512;52.408;13.356;2023-06-24T08:06:53;8.43;;;4.90;;
45762;SDS011;37512;52.408;13.356;2023-06-24T08:10:54;6.50;;;4.40;;
45762;SDS011;37512;52.408;13.356;2023-06-24T08:14:56;7.38;;;5.25;;
45762;SDS011;37512;52.408;13.356;2023-06-24T08:18:57;8.43;;;5.75;;
45762;SDS011;37512;52.408;13.356;2023-06-24T08:22:59;8.35;;;5.43;;
45762;SDS011;37512;52.408;13.356;2023-06-24T08:27:00;8.63;;;6.20;;
45762;SDS011;37512;52.408;13.356;2023-06-24T08:31:02;9.15;;;5.38;;
45762;SDS011;37512;52.408;13.356;2023-06-24T08:35:04;9.05;;;5.20;;
45762;SDS011;37512;52.408;13.356;2023-06-24T08:39:07;7.93;;;5.20;;
45762;SDS011;37512;52.408;13.356;2023-06-24T08:43:09;7.63;;;4.95;;
45762;SDS011;37512;52.408;13.356;2023-06-24T08:47:11;8.20;;;4.88;;
45762;SDS011;37512;52.408;13.356;2023-06-24T08:51:18;5.25;;;4.68;;
45762;SDS011;37512;52.408;13.356;2023-06-24T08:55:23;6.38;;;4.13;;
45762;SDS011;37512;52.408;13.356;2023-06-24T08:59:38;7.35;;;4.75;;
45762;SDS011;37512;52.408;13.356;2023-06-24T09:03:39;9.20;;;4.70;;
45762;SDS011;37512;52.408;13.356;2023-06-24T09:07:41;5.07;;;4.50;;
45762;SDS011;37512;52.408;13.356;2023-06-24T09:11:43;7.35;;;5.20;;
45762;SDS011;37512;52.408;13.356;2023-06-24T09:15:53;6.53;;;4.00;;
45762;SDS011;37512;52.408;13.356;2023-06-24T09:19:54;7.68;;;4.63;;
45762;SDS011;37512;52.408;13.356;2023-06-24T09:24:05;3.90;;;3.50;;
45762;SDS011;37512;52.408;13.356;2023-06-24T09:28:07;5.28;;;4.63;;
45762;SDS011;37512;52.408;13.356;2023-06-24T09:32:08;4.88;;;3.35;;
45762;SDS011;37512;52.408;13.356;2023-06-24T09:36:14;5.82;;;4.50;;
45762;SDS011;37512;52.408;13.356;2023-06-24T09:40:16;8.15;;;4.22;;
45762;SDS011;37512;52.408;13.356;2023-06-24T09:44:18;4.72;;;3.70;;
45762;SDS011;37512;52.408;13.356;2023-06-24T09:48:23;4.10;;;3.28;;
45762;SDS011;37512;52.408;13.356;2023-06-24T09:52:26;5.90;;;3.60;;
45762;SDS011;37512;52.408;13.356;2023-06-24T09:56:29;5.13;;;3.20;;
45762;SDS011;37512;52.408;13.356;2023-06-24T10:00:31;5.13;;;3.10;;
45762;SDS011;37512;52.408;13.356;2023-06-24T10:04:32;7.32;;;4.22;;
45762;SDS011;37512;52.408;13.356;2023-06-24T10:08:34;6.72;;;2.85;;
45762;SDS011;37512;52.408;13.356;2023-06-24T10:12:36;3.47;;;3.05;;
45762;SDS011;37512;52.408;13.356;2023-06-24T10:16:38;5.30;;;2.97;;
45762;SDS011;37512;52.408;13.356;2023-06-24T10:20:39;4.55;;;3.38;;
45762;SDS011;37512;52.408;13.356;2023-06-24T10:24:41;3.22;;;2.50;;
45762;SDS011;37512;52.408;13.356;2023-06-24T10:29:08;5.97;;;3.08;;
45762;SDS011;37512;52.408;13.356;2023-06-24T10:33:10;5.40;;;2.95;;
45762;SDS011;37512;52.408;13.356;2023-06-24T10:37:13;6.88;;;2.92;;
45762;SDS011;37512;52.408;13.356;2023-06-24T10:41:18;5.60;;;3.40;;
45762;SDS011;37512;52.408;13.356;2023-06-24T10:45:20;3.75;;;3.00;;
45762;SDS011;37512;52.408;13.356;2023-06-24T10:49:23;5.57;;;3.17;;
45762;SDS011;37512;52.408;13.356;2023-06-24T10:53:24;6.28;;;3.50;;
45762;SDS011;37512;52.408;13.356;2023-06-24T10:57:27;4.65;;;2.65;;
45762;SDS011;37512;52.408;13.356;2023-06-24T11:01:29;5.18;;;3.15;;
45762;SDS011;37512;52.408;13.356;2023-06-24T11:05:30;4.38;;;3.03;;
45762;SDS011;37512;52.408;13.356;2023-06-24T11:09:32;4.43;;;2.78;;
45762;SDS011;37512;52.408;13.356;2023-06-24T11:13:34;4.30;;;2.85;;
45762;SDS011;37512;52.408;13.356;2023-06-24T11:17:36;4.22;;;3.00;;
45762;SDS011;37512;52.408;13.356;2023-06-24T11:21:39;3.35;;;2.45;;
45762;SDS011;37512;52.408;13.356;2023-06-24T11:25:41;3.08;;;2.47;;
45762;SDS011;37512;52.408;13.356;2023-06-24T11:29:44;5.88;;;3.20;;
45762;SDS011;37512;52.408;13.356;2023-06-24T11:33:49;3.47;;;2.80;;
45762;SDS011;37512;52.408;13.356;2023-06-24T11:37:51;5.80;;;2.70;;
45762;SDS011;37512;52.408;13.356;2023-06-24T11:41:53;4.32;;;2.85;;
45762;SDS011;37512;52.408;13.356;2023-06-24T11:45:58;4.07;;;3.00;;
45762;SDS011;37512;52.408;13.356;2023-06-24T11:50:00;4.55;;;2.72;;
45762;SDS011;37512;52.408;13.356;2023-06-24T11:54:05;3.95;;;2.72;;
45762;SDS011;37512;52.408;13.356;2023-06-24T11:58:07;3.28;;;2.50;;
45762;SDS011;37512;52.408;13.356;2023-06-24T12:02:13;6.88;;;5.65;;
45762;SDS011;37512;52.408;13.356;2023-06-24T12:06:15;3.33;;;2.80;;
45762;SDS011;37512;52.408;13.356;2023-06-24T12:10:16;3.58;;;2.80;;
45762;SDS011;37512;52.408;13.356;2023-06-24T12:14:18;3.88;;;2.78;;
45762;SDS011;37512;52.408;13.356;2023-06-24T12:18:24;5.57;;;4.13;;
45762;SDS011;37512;52.408;13.356;2023-06-24T12:22:26;3.20;;;2.75;;
45762;SDS011;37512;52.408;13.356;2023-06-24T12:26:28;6.63;;;3.20;;
45762;SDS011;37512;52.408;13.356;2023-06-24T12:30:32;3.47;;;2.78;;
45762;SDS011;37512;52.408;13.356;2023-06-24T12:34:34;4.35;;;3.42;;
45762;SDS011;37512;52.408;13.356;2023-06-24T12:38:38;6.90;;;3.10;;
45762;SDS011;37512;52.408;13.356;2023-06-24T12:42:39;3.92;;;2.63;;
45762;SDS011;37512;52.408;13.356;2023-06-24T12:46:41;3.58;;;2.80;;
45762;SDS011;37512;52.408;13.356;2023-06-24T12:50:42;3.75;;;2.75;;
45762;SDS011;37512;52.408;13.356;2023-06-24T12:54:44;2.80;;;2.35;;
45762;SDS011;37512;52.408;13.356;2023-06-24T12:58:45;4.13;;;3.20;;
45762;SDS011;37512;52.408;13.356;2023-06-24T13:02:47;4.03;;;2.90;;
45762;SDS011;37512;52.408;13.356;2023-06-24T13:06:52;4.05;;;2.92;;
45762;SDS011;37512;52.408;13.356;2023-06-24T13:10:55;5.60;;;3.35;;
45762;SDS011;37512;52.408;13.356;2023-06-24T13:14:56;3.60;;;2.95;;
45762;SDS011;37512;52.408;13.356;2023-06-24T13:18:58;4.10;;;3.10;;
45762;SDS011;37512;52.408;13.356;2023-06-24T13:22:59;5.22;;;3.70;;
45762;SDS011;37512;52.408;13.356;2023-06-24T13:27:00;4.32;;;3.40;;
45762;SDS011;37512;52.408;13.356;2023-06-24T13:31:02;4.68;;;3.85;;
45762;SDS011;37512;52.408;13.356;2023-06-24T13:35:04;4.45;;;3.40;;
45762;SDS011;37512;52.408;13.356;2023-06-24T13:39:07;3.47;;;3.03;;
45762;SDS011;37512;52.408;13.356;2023-06-24T13:43:10;5.25;;;3.80;;
45762;SDS011;37512;52.408;13.356;2023-06-24T13:47:11;4.07;;;2.92;;
45762;SDS011;37512;52.408;13.356;2023-06-24T13:51:14;5.78;;;3.72;;
45762;SDS011;37512;52.408;13.356;2023-06-24T13:55:15;4.63;;;3.33;;
45762;SDS011;37512;52.408;13.356;2023-06-24T13:59:17;3.60;;;3.20;;
45762;SDS011;37512;52.408;13.356;2023-06-24T14:03:18;4.00;;;3.33;;
45762;SDS011;37512;52.408;13.356;2023-06-24T14:07:20;3.88;;;3.08;;
45762;SDS011;37512;52.408;13.356;2023-06-24T14:11:21;7.28;;;3.30;;
45762;SDS011;37512;52.408;13.356;2023-06-24T14:15:23;4.10;;;3.50;;
45762;SDS011;37512;52.408;13.356;2023-06-24T14:19:25;5.97;;;4.43;;
45762;SDS011;37512;52.408;13.356;2023-06-24T14:23:27;4.38;;;3.30;;
45762;SDS011;37512;52.408;13.356;2023-06-24T14:27:29;3.72;;;3.30;;
45762;SDS011;37512;52.408;13.356;2023-06-24T14:31:31;4.80;;;3.42;;
45762;SDS011;37512;52.408;13.356;2023-06-24T14:35:33;5.53;;;3.45;;
45762;SDS011;37512;52.408;13.356;2023-06-24T14:39:34;4.55;;;3.20;;
45762;SDS011;37512;52.408;13.356;2023-06-24T14:43:36;4.25;;;3.15;;
45762;SDS011;37512;52.408;13.356;2023-06-24T14:47:37;6.20;;;3.35;;
45762;SDS011;37512;52.408;13.356;2023-06-24T14:51:39;4.20;;;3.50;;
45762;SDS011;37512;52.408;13.356;2023-06-24T14:55:40;4.88;;;3.28;;
45762;SDS011;37512;52.408;13.356;2023-06-24T14:59:42;4.63;;;3.50;;
45762;SDS011;37512;52.408;13.356;2023-06-24T15:03:43;3.70;;;3.30;;
45762;SDS011;37512;52.408;13.356;2023-06-24T15:07:45;5.07;;;3.60;;
45762;SDS011;37512;52.408;13.356;2023-06-24T15:11:47;4.60;;;3.30;;
45762;SDS011;37512;52.408;13.356;2023-06-24T15:15:48;4.10;;;2.90;;
45762;SDS011;37512;52.408;13.356;2023-06-24T15:19:50;4.03;;;2.90;;
45762;SDS011;37512;52.408;13.356;2023-06-24T15:23:52;5.88;;;4.68;;
45762;SDS011;37512;52.408;13.356;2023-06-24T15:27:54;4.40;;;3.20;;
45762;SDS011;37512;52.408;13.356;2023-06-24T15:31:55;4.50;;;3.58;;
45762;SDS011;37512;52.408;13.356;2023-06-24T15:35:57;5.43;;;3.83;;
45762;SDS011;37512;52.408;13.356;2023-06-24T15:40:00;4.28;;;3.75;;
45762;SDS011;37512;52.408;13.356;2023-06-24T15:44:05;6.05;;;3.00;;
45762;SDS011;37512;52.408;13.356;2023-06-24T15:48:07;6.00;;;3.75;;
45762;SDS011;37512;52.408;13.356;2023-06-24T15:52:09;4.63;;;3.10;;
45762;SDS011;37512;52.408;13.356;2023-06-24T15:56:10;6.00;;;3.10;;
45762;SDS011;37512;52.408;13.356;2023-06-24T16:00:12;4.20;;;3.33;;
45762;SDS011;37512;52.408;13.356;2023-06-24T16:04:13;3.55;;;2.85;;
45762;SDS011;37512;52.408;13.356;2023-06-24T16:08:15;6.65;;;3.65;;
45762;SDS011;37512;52.408;13.356;2023-06-24T16:12:16;7.57;;;5.22;;
45762;SDS011;37512;52.408;13.356;2023-06-24T16:16:18;6.13;;;3.70;;
45762;SDS011;37512;52.408;13.356;2023-06-24T16:20:19;5.20;;;3.20;;
45762;SDS011;37512;52.408;13.356;2023-06-24T16:24:22;3.97;;;3.33;;
45762;SDS011;37512;52.408;13.356;2023-06-24T16:28:23;5.75;;;3.45;;
45762;SDS011;37512;52.408;13.356;2023-06-24T16:32:25;3.58;;;2.95;;
45762;SDS011;37512;52.408;13.356;2023-06-24T16:36:27;21.52;;;18.05;;
45762;SDS011;37512;52.408;13.356;2023-06-24T16:40:28;5.38;;;3.45;;
45762;SDS011;37512;52.408;13.356;2023-06-24T16:44:30;5.50;;;3.17;;
45762;SDS011;37512;52.408;13.356;2023-06-24T16:48:34;6.82;;;3.55;;
45762;SDS011;37512;52.408;13.356;2023-06-24T16:52:37;4.72;;;3.13;;
45762;SDS011;37512;52.408;13.356;2023-06-24T16:56:39;4.47;;;3.28;;
45762;SDS011;37512;52.408;13.356;2023-06-24T17:00:41;3.85;;;3.33;;
45762;SDS011;37512;52.408;13.356;2023-06-24T17:04:43;3.80;;;3.40;;
45762;SDS011;37512;52.408;13.356;2023-06-24T17:08:49;4.85;;;3.80;;
45762;SDS011;37512;52.408;13.356;2023-06-24T17:12:52;6.63;;;4.85;;
45762;SDS011;37512;52.408;13.356;2023-06-24T17:16:53;5.25;;;4.25;;
45762;SDS011;37512;52.408;13.356;2023-06-24T17:20:55;4.38;;;3.35;;
45762;SDS011;37512;52.408;13.356;2023-06-24T17:24:56;4.45;;;3.47;;
45762;SDS011;37512;52.408;13.356;2023-06-24T17:28:58;7.50;;;3.95;;
45762;SDS011;37512;52.408;13.356;2023-06-24T17:32:59;4.50;;;3.38;;
45762;SDS011;37512;52.408;13.356;2023-06-24T17:37:01;4.13;;;3.70;;
45762;SDS011;37512;52.408;13.356;2023-06-24T17:41:02;5.53;;;4.00;;
45762;SDS011;37512;52.408;13.356;2023-06-24T17:45:17;5.85;;;3.67;;
45762;SDS011;37512;52.408;13.356;2023-06-24T17:49:22;4.47;;;3.25;;
45762;SDS011;37512;52.408;13.356;2023-06-24T17:53:26;8.05;;;4.93;;
45762;SDS011;37512;52.408;13.356;2023-06-24T17:57:31;7.50;;;5.28;;
45762;SDS011;37512;52.408;13.356;2023-06-24T18:01:32;5.63;;;3.60;;
45762;SDS011;37512;52.408;13.356;2023-06-24T18:05:37;6.25;;;4.00;;
45762;SDS011;37512;52.408;13.356;2023-06-24T18:09:42;5.18;;;3.72;;
45762;SDS011;37512;52.408;13.356;2023-06-24T18:13:50;7.17;;;4.20;;
45762;SDS011;37512;52.408;13.356;2023-06-24T18:17:54;5.28;;;3.58;;
45762;SDS011;37512;52.408;13.356;2023-06-24T18:32:37;7.28;;;5.53;;
45762;SDS011;37512;52.408;13.356;2023-06-24T18:42:09;6.95;;;3.60;;
45762;SDS011;37512;52.408;13.356;2023-06-24T18:46:11;5.82;;;3.47;;
45762;SDS011;37512;52.408;13.356;2023-06-24T18:50:13;6.40;;;3.88;;
45762;SDS011;37512;52.408;13.356;2023-06-24T18:54:14;11.98;;;8.13;;
45762;SDS011;37512;52.408;13.356;2023-06-24T18:58:17;19.20;;;12.70;;
45762;SDS011;37512;52.408;13.356;2023-06-24T19:02:19;15.73;;;11.88;;
45762;SDS011;37512;52.408;13.356;2023-06-24T19:06:20;7.75;;;5.93;;
45762;SDS011;37512;52.408;13.356;2023-06-24T19:10:23;7.32;;;4.72;;
45762;SDS011;37512;52.408;13.356;2023-06-24T19:14:24;8.80;;;4.53;;
45762;SDS011;37512;52.408;13.356;2023-06-24T19:18:28;5.82;;;4.43;;
45762;SDS011;37512;52.408;13.356;2023-06-24T19:22:29;5.35;;;4.22;;
45762;SDS011;37512;52.408;13.356;2023-06-24T19:26:31;6.38;;;4.07;;
45762;SDS011;37512;52.408;13.356;2023-06-24T19:30:32;5.90;;;3.70;;
45762;SDS011;37512;52.408;13.356;2023-06-24T19:34:34;5.50;;;3.70;;
45762;SDS011;37512;52.408;13.356;2023-06-24T19:38:39;5.13;;;4.32;;
45762;SDS011;37512;52.408;13.356;2023-06-24T19:42:41;5.22;;;3.60;;
45762;SDS011;37512;52.408;13.356;2023-06-24T19:46:43;6.18;;;4.10;;
45762;SDS011;37512;52.408;13.356;2023-06-24T19:50:45;6.22;;;3.95;;
45762;SDS011;37512;52.408;13.356;2023-06-24T19:54:47;8.55;;;4.07;;
45762;SDS011;37512;52.408;13.356;2023-06-24T19:58:49;9.63;;;4.03;;
45762;SDS011;37512;52.408;13.356;2023-06-24T20:02:51;7.68;;;4.00;;
45762;SDS011;37512;52.408;13.356;2023-06-24T20:06:55;10.80;;;5.03;;
45762;SDS011;37512;52.408;13.356;2023-06-24T20:10:59;6.93;;;4.43;;
45762;SDS011;37512;52.408;13.356;2023-06-24T20:15:01;13.43;;;5.25;;
45762;SDS011;37512;52.408;13.356;2023-06-24T20:19:03;7.25;;;5.15;;
45762;SDS011;37512;52.408;13.356;2023-06-24T20:23:06;8.80;;;5.68;;
45762;SDS011;37512;52.408;13.356;2023-06-24T20:27:08;11.02;;;8.35;;
45762;SDS011;37512;52.408;13.356;2023-06-24T20:31:10;18.17;;;13.63;;
45762;SDS011;37512;52.408;13.356;2023-06-24T20:35:14;23.00;;;15.15;;
45762;SDS011;37512;52.408;13.356;2023-06-24T20:39:17;25.88;;;16.33;;
45762;SDS011;37512;52.408;13.356;2023-06-24T20:43:18;22.23;;;13.75;;
45762;SDS011;37512;52.408;13.356;2023-06-24T20:47:23;20.92;;;14.85;;
45762;SDS011;37512;52.408;13.356;2023-06-24T20:51:25;16.55;;;13.27;;
45762;SDS011;37512;52.408;13.356;2023-06-24T20:55:26;21.70;;;14.88;;
45762;SDS011;37512;52.408;13.356;2023-06-24T20:59:28;20.30;;;14.45;;
45762;SDS011;37512;52.408;13.356;2023-06-24T21:03:30;24.80;;;16.52;;
45762;SDS011;37512;52.408;13.356;2023-06-24T21:07:32;26.05;;;16.80;;
45762;SDS011;37512;52.408;13.356;2023-06-24T21:11:34;22.58;;;16.60;;
45762;SDS011;37512;52.408;13.356;2023-06-24T21:15:36;23.75;;;16.92;;
45762;SDS011;37512;52.408;13.356;2023-06-24T21:19:37;21.67;;;16.00;;
45762;SDS011;37512;52.408;13.356;2023-06-24T21:23:39;25.90;;;15.20;;
45762;SDS011;37512;52.408;13.356;2023-06-24T21:27:40;20.60;;;15.70;;
45762;SDS011;37512;52.408;13.356;2023-06-24T21:31:42;25.27;;;19.13;;
45762;SDS011;37512;52.408;13.356;2023-06-24T21:35:43;22.58;;;16.95;;
45762;SDS011;37512;52.408;13.356;2023-06-24T21:40:00;25.67;;;17.45;;
45762;SDS011;37512;52.408;13.356;2023-06-24T21:44:02;20.80;;;16.85;;
45762;SDS011;37512;52.408;13.356;2023-06-24T21:48:04;25.20;;;16.58;;
45762;SDS011;37512;52.408;13.356;2023-06-24T21:52:06;23.10;;;15.90;;
45762;SDS011;37512;52.408;13.356;2023-06-24T21:56:08;22.58;;;13.82;;
45762;SDS011;37512;52.408;13.356;2023-06-24T22:00:09;19.90;;;12.93;;
45762;SDS011;37512;52.408;13.356;2023-06-24T22:04:20;20.85;;;11.77;;
45762;SDS011;37512;52.408;13.356;2023-06-24T22:08:22;15.55;;;11.32;;
45762;SDS011;37512;52.408;13.356;2023-06-24T22:12:24;16.80;;;11.45;;
45762;SDS011;37512;52.408;13.356;2023-06-24T22:16:25;22.58;;;13.90;;
45762;SDS011;37512;52.408;13.356;2023-06-24T22:20:27;21.90;;;14.90;;
45762;SDS011;37512;52.408;13.356;2023-06-24T22:24:28;22.67;;;15.68;;
45762;SDS011;37512;52.408;13.356;2023-06-24T22:28:30;23.15;;;14.93;;
45762;SDS011;37512;52.408;13.356;2023-06-24T22:32:33;18.60;;;13.98;;
45762;SDS011;37512;52.408;13.356;2023-06-24T22:36:36;18.90;;;13.48;;
45762;SDS011;37512;52.408;13.356;2023-06-24T22:40:40;18.90;;;13.80;;
45762;SDS011;37512;52.408;13.356;2023-06-24T22:44:42;20.23;;;13.82;;
45762;SDS011;37512;52.408;13.356;2023-06-24T22:48:43;28.35;;;14.35;;
45762;SDS011;37512;52.408;13.356;2023-06-24T22:52:45;22.98;;;13.52;;
45762;SDS011;37512;52.408;13.356;2023-06-24T22:56:46;18.30;;;13.75;;
45762;SDS011;37512;52.408;13.356;2023-06-24T23:00:48;18.77;;;13.20;;
45762;SDS011;37512;52.408;13.356;2023-06-24T23:04:49;16.98;;;12.25;;
45762;SDS011;37512;52.408;13.356;2023-06-24T23:08:51;18.88;;;11.75;;
45762;SDS011;37512;52.408;13.356;2023-06-24T23:12:52;13.13;;;10.80;;
45762;SDS011;37512;52.408;13.356;2023-06-24T23:16:55;14.57;;;11.02;;
45762;SDS011;37512;52.408;13.356;2023-06-24T23:20:57;12.57;;;8.98;;
45762;SDS011;37512;52.408;13.356;2023-06-24T23:24:59;15.27;;;8.77;;
45762;SDS011;37512;52.408;13.356;2023-06-24T23:29:02;12.38;;;9.35;;
45762;SDS011;37512;52.408;13.356;2023-06-24T23:33:13;14.85;;;8.98;;
45762;SDS011;37512;52.408;13.356;2023-06-24T23:37:18;11.93;;;9.02;;
45762;SDS011;37512;52.408;13.356;2023-06-24T23:41:20;11.63;;;8.55;;
45762;SDS011;37512;52.408;13.356;2023-06-24T23:45:22;14.27;;;8.55;;
45762;SDS011;37512;52.408;13.356;2023-06-24T23:49:24;13.25;;;8.82;;
45762;SDS011;37512;52.408;13.356;2023-06-24T23:53:26;11.77;;;7.88;;
45762;SDS011;37512;52.408;13.356;2023-06-24T23:57:27;13.23;;;8.27;;
